Nova Mutum, Brazil
Current Conditions -  °F | °C
As of 9:00 AM on Monday 22 Dec 2014 (Local Time) from SBCY Reporting Station
Light Rain Light Rain  
Wind Chill: 75°   Ceiling: 2000
Heat Index: 75°   Visibility: 2.5mi
Dew Point: 72°   Wind: 9mph
Humidity: 89%   Direction: 270°W
Pressure: NA   Gusts: NA
Location:  13.83°S, 56.08°W
Report Text: SBCY 221200Z 27008KT 4000 -RA BKN020 FEW025TCU BKN100 24/22 Q1013
Loading
Personal Weather Stations






























Interactive Weather Map New forecast layout! Learn more

10-Day Weather Forecast

Advertisements
Track Severe Weather on mobile